| time (UTC) | temp C | wind direction | speed KPH | gust KPH | rain 1hr cm | rain 24hr cm | rain mn cm | humidity % | barometer mb |
| 20260507134536 | 10 | 311 | 4.8 | 11.3 | 0.00 | 2.08 | 0.43 | 81 | 1004.0 |
| 20260507133036 | 10 | 352 | 4.8 | 11.3 | 0.00 | 2.08 | 0.43 | 81 | 1004.3 |
| 20260507131536 | 9 | 292 | 6.4 | 16.1 | 0.00 | 2.08 | 0.43 | 81 | 1004.2 |
| 20260507130054 | 9 | 317 | 4.8 | 14.5 | 0.00 | 2.08 | 0.43 | 82 | 1004.3 |
| 20260507124547 | 8 | 315 | 1.6 | 11.3 | 0.00 | 2.08 | 0.43 | 86 | 1004.2 |
| 20260507123041 | 8 | 291 | 8.0 | 14.5 | 0.00 | 2.08 | 0.43 | 86 | 1004.4 |
| 20260507121539 | 8 | 309 | 1.6 | 12.9 | 0.00 | 2.08 | 0.43 | 90 | 1004.6 |
| 20260507120043 | 7 | 301 | 3.2 | 11.3 | 0.00 | 2.08 | 0.43 | 93 | 1004.2 |
| 20260507114539 | 7 | 300 | 1.6 | 9.7 | 0.00 | 2.11 | 0.43 | 95 | 1004.9 |
| 20260507113037 | 7 | 284 | 4.8 | 16.1 | 0.00 | 2.11 | 0.43 | 95 | 1004.6 |
| 20260507111536 | 7 | 294 | 8.0 | 16.1 | 0.00 | 2.11 | 0.43 | 96 | 1004.2 |
| 20260507110044 | 6 | 293 | 6.4 | 14.5 | 0.00 | 2.11 | 0.43 | 96 | 1004.3 |
| 20260507104536 | 7 | 308 | 4.8 | 14.5 | 0.00 | 2.11 | 0.43 | 97 | 1004.1 |
| 20260507103040 | 6 | 284 | 6.4 | 14.5 | 0.00 | 2.11 | 0.43 | 96 | 1004.0 |
| 20260507101542 | 7 | 304 | 4.8 | 9.7 | 0.00 | 2.11 | 0.43 | 97 | 1003.6 |
| 20260507100048 | 7 | 301 | 1.6 | 6.4 | 0.00 | 2.11 | 0.43 | 96 | 1003.8 |
| 20260507094537 | 7 | 268 | 1.6 | 9.7 | 0.00 | 2.11 | 0.43 | 97 | 1004.0 |
| 20260507093036 | 7 | 319 | 3.2 | 8.0 | 0.00 | 2.11 | 0.43 | 96 | 1003.7 |
| 20260507091540 | 7 | 317 | 3.2 | 8.0 | 0.00 | 2.11 | 0.43 | 97 | 1003.6 |
| 20260507090041 | 7 | 319 | 3.2 | 12.9 | 0.00 | 2.11 | 0.43 | 96 | 1003.4 |
| 20260507084544 | 7 | 288 | 0.0 | 8.0 | 0.00 | 2.11 | 0.43 | 96 | 1003.2 |
| 20260507083058 | 7 | 292 | 3.2 | 9.7 | 0.00 | 2.11 | 0.43 | 96 | 1003.5 |
| 20260507081537 | 7 | 296 | 3.2 | 9.7 | 0.03 | 2.11 | 0.43 | 96 | 1003.4 |
| 20260507080040 | 7 | 330 | 4.8 | 12.9 | 0.03 | 2.11 | 0.43 | 96 | 1003.3 |
| 20260507074539 | 7 | 335 | 4.8 | 14.5 | 0.03 | 2.11 | 0.43 | 96 | 1003.2 |
| 20260507073049 | 7 | 350 | 4.8 | 19.3 | 0.05 | 2.11 | 0.43 | 96 | 1003.1 |
| 20260507071537 | 7 | 25 | 4.8 | 14.5 | 0.08 | 2.08 | 0.41 | 97 | 1003.1 |
| 20260507070040 | 7 | 344 | 3.2 | 17.7 | 0.18 | 2.08 | 0.41 | 97 | 1002.7 |
| 20260507064542 | 7 | 5 | 1.6 | 11.3 | 0.20 | 2.08 | 0.41 | 96 | 1002.6 |
| 20260507063038 | 7 | 36 | 3.2 | 14.5 | 0.23 | 2.06 | 0.38 | 97 | 1002.9 |
| 20260507061537 | 8 | 325 | 8.0 | 14.5 | 0.28 | 2.01 | 0.33 | 97 | 1003.4 |
| 20260507060045 | 8 | 325 | 3.2 | 12.9 | 0.20 | 1.91 | 0.23 | 97 | 1002.7 |
| 20260507054540 | 8 | 292 | 4.8 | 20.9 | 0.18 | 1.88 | 0.20 | 97 | 1002.0 |
| 20260507053041 | 9 | 36 | 6.4 | 32.2 | 0.15 | 1.83 | 0.15 | 96 | 1002.6 |
| 20260507051537 | 10 | 279 | 9.7 | 22.5 | 0.05 | 1.73 | 0.05 | 97 | 1002.4 |
| 20260507050039 | 10 | 264 | 9.7 | 20.9 | 0.03 | 1.70 | 0.03 | 97 | 1002.3 |
| 20260507044543 | 10 | 213 | 11.3 | 17.7 | 0.08 | 1.70 | 0.03 | 97 | 1002.2 |
| 20260507043038 | 10 | 200 | 11.3 | 25.7 | 0.10 | 1.68 | 0.00 | 97 | 1001.9 |
| 20260507041543 | 10 | 275 | 9.7 | 19.3 | 0.10 | 1.68 | 0.00 | 97 | 1002.2 |
| 20260507040040 | 11 | 232 | 9.7 | 24.1 | 0.13 | 1.68 | 0.00 | 97 | 1002.2 |
| 20260507034537 | 10 | 231 | 8.0 | 17.7 | 0.08 | 1.63 | 1.63 | 97 | 1002.2 |
| 20260507033036 | 10 | 190 | 6.4 | 16.1 | 0.03 | 1.57 | 1.57 | 97 | 1002.2 |
| 20260507031535 | 10 | 193 | 6.4 | 14.5 | 0.05 | 1.57 | 1.57 | 97 | 1002.3 |
| 20260507030037 | 10 | 172 | 4.8 | 16.1 | 0.05 | 1.55 | 1.55 | 97 | 1002.3 |
| 20260507024541 | 10 | 168 | 6.4 | 11.3 | 0.23 | 1.55 | 1.55 | 97 | 1002.6 |
| 20260507023041 | 10 | 143 | 4.8 | 17.7 | 0.30 | 1.55 | 1.55 | 96 | 1002.9 |
| 20260507021544 | 11 | 183 | 4.8 | 14.5 | 0.30 | 1.52 | 1.52 | 97 | 1003.3 |
| 20260507020048 | 11 | 178 | 4.8 | 16.1 | 0.28 | 1.47 | 1.47 | 97 | 1003.6 |
| 20260507014549 | 11 | 177 | 3.2 | 14.5 | 0.08 | 1.30 | 1.30 | 96 | 1004.0 |
| 20260507013042 | 11 | 136 | 6.4 | 16.1 | 0.03 | 1.24 | 1.24 | 96 | 1004.4 |
| 20260507011536 | 11 | 191 | 9.7 | 19.3 | 0.05 | 1.22 | 1.22 | 96 | 1004.6 |
| 20260507010036 | 11 | 175 | 4.8 | 17.7 | 0.20 | 1.22 | 1.22 | 96 | 1004.8 |
| 20260507004540 | 11 | 223 | 8.0 | 19.3 | 0.28 | 1.22 | 1.22 | 96 | 1005.0 |
| 20260507003036 | 11 | 180 | 8.0 | 19.3 | 0.38 | 1.19 | 1.19 | 96 | 1005.0 |
| 20260507001535 | 11 | 202 | 8.0 | 19.3 | 0.48 | 1.17 | 1.17 | 96 | 1005.1 |
| 20260507000036 | 11 | 188 | 9.7 | 27.4 | 0.43 | 1.02 | 1.02 | 96 | 1005.2 |
| 20260506234538 | 11 | 180 | 6.4 | 20.9 | 0.41 | 0.91 | 0.91 | 96 | 1005.1 |
| 20260506233037 | 11 | 185 | 6.4 | 14.5 | 0.38 | 0.81 | 0.81 | 96 | 1005.0 |
| 20260506231548 | 11 | 213 | 8.0 | 19.3 | 0.41 | 0.69 | 0.69 | 96 | 1005.4 |
| 20260506230051 | 11 | 205 | 4.8 | 17.7 | 0.36 | 0.58 | 0.58 | 96 | 1005.3 |
| 20260506224541 | 11 | 163 | 6.4 | 20.9 | 0.33 | 0.51 | 0.51 | 95 | 1005.7 |
| 20260506223052 | 12 | 189 | 9.7 | 25.7 | 0.28 | 0.43 | 0.43 | 95 | 1005.8 |
| 20260506221542 | 12 | 178 | 9.7 | 24.1 | 0.18 | 0.28 | 0.28 | 95 | 1005.8 |
| 20260506220038 | 11 | 171 | 9.7 | 24.1 | 0.15 | 0.23 | 0.23 | 95 | 1005.9 |
| 20260506214536 | 12 | 205 | 6.4 | 17.7 | 0.15 | 0.18 | 0.18 | 94 | 1005.9 |
| 20260506213045 | 12 | 184 | 4.8 | 19.3 | 0.13 | 0.15 | 0.15 | 94 | 1005.9 |
| 20260506211547 | 12 | 200 | 6.4 | 20.9 | 0.08 | 0.10 | 0.10 | 93 | 1005.8 |
| 20260506210040 | 12 | 203 | 9.7 | 20.9 | 0.03 | 0.05 | 0.05 | 92 | 1006.4 |
| 20260506204546 | 12 | 203 | 9.7 | 27.4 | 0.00 | 0.03 | 0.03 | 90 | 1006.5 |
| 20260506203038 | 13 | 210 | 9.7 | 30.6 | 0.00 | 0.03 | 0.03 | 88 | 1006.3 |
| 20260506201551 | 13 | 182 | 6.4 | 24.1 | 0.00 | 0.03 | 0.03 | 88 | 1005.6 |
| 20260506200043 | 13 | 182 | 11.3 | 22.5 | 0.00 | 0.03 | 0.03 | 87 | 1006.2 |
| 20260506194543 | 13 | 203 | 6.4 | 27.4 | 0.00 | 0.03 | 0.03 | 85 | 1007.0 |
| 20260506193039 | 13 | 207 | 8.0 | 22.5 | 0.00 | 0.03 | 0.03 | 85 | 1006.7 |
| 20260506191544 | 14 | 157 | 6.4 | 17.7 | 0.00 | 0.03 | 0.03 | 84 | 1006.7 |
| 20260506190043 | 14 | 165 | 6.4 | 22.5 | 0.00 | 0.03 | 0.03 | 84 | 1006.7 |
| 20260506184540 | 14 | 212 | 11.3 | 30.6 | 0.00 | 0.03 | 0.03 | 84 | 1006.6 |
| 20260506183047 | 14 | 183 | 8.0 | 20.9 | 0.00 | 0.03 | 0.03 | 84 | 1006.5 |
| 20260506181538 | 14 | 189 | 9.7 | 19.3 | 0.00 | 0.03 | 0.03 | 84 | 1007.1 |
| 20260506180048 | 14 | 215 | 9.7 | 22.5 | 0.00 | 0.03 | 0.03 | 85 | 1007.3 |
| 20260506174545 | 13 | 192 | 9.7 | 22.5 | 0.00 | 0.03 | 0.03 | 85 | 1007.6 |
| 20260506173049 | 13 | 174 | 8.0 | 22.5 | 0.00 | 0.03 | 0.03 | 86 | 1007.6 |
| 20260506171540 | 13 | 192 | 14.5 | 24.1 | 0.00 | 0.03 | 0.03 | 85 | 1008.0 |
| 20260506170055 | 13 | 222 | 11.3 | 22.5 | 0.00 | 0.03 | 0.03 | 86 | 1008.1 |
| 20260506164536 | 13 | 215 | 8.0 | 22.5 | 0.00 | 0.03 | 0.03 | 86 | 1008.2 |
| 20260506163036 | 13 | 199 | 8.0 | 17.7 | 0.00 | 0.03 | 0.03 | 86 | 1008.4 |
| 20260506161544 | 13 | 219 | 4.8 | 12.9 | 0.00 | 0.03 | 0.03 | 86 | 1008.4 |
| 20260506160041 | 13 | 119 | 4.8 | 19.3 | 0.00 | 0.03 | 0.03 | 86 | 1008.5 |
| 20260506154541 | 14 | 184 | 4.8 | 22.5 | 0.00 | 0.03 | 0.03 | 84 | 1008.4 |
| 20260506153035 | 14 | 193 | 6.4 | 16.1 | 0.00 | 0.03 | 0.03 | 82 | 1008.1 |
| 20260506151539 | 15 | 142 | 3.2 | 27.4 | 0.00 | 0.03 | 0.03 | 81 | 1008.2 |
| 20260506150043 | 15 | 161 | 4.8 | 14.5 | 0.00 | 0.03 | 0.03 | 80 | 1008.8 |
| 20260506144550 | 15 | 176 | 4.8 | 11.3 | 0.00 | 0.03 | 0.03 | 81 | 1009.1 |
| 20260506143036 | 15 | 235 | 3.2 | 8.0 | 0.00 | 0.03 | 0.03 | 81 | 1009.3 |
| 20260506141538 | 14 | 173 | 1.6 | 9.7 | 0.00 | 0.03 | 0.03 | 83 | 1009.0 |
| 20260506140036 | 13 | 148 | 3.2 | 14.5 | 0.00 | 0.03 | 0.03 | 83 | 1009.1 |